Time;durP1;ratioP1;P1;durP2;ratioP2;P2;SDS_P1;SDS_P2;PMS_P1;PMS_P2;Temp;Humidity;BMP_temperature;BMP_pressure;BME280_temperature;BME280_humidity;BME280_pressure;Samples;Min_cycle;Max_cycle;Signal;HPM_P1;HPM_P2
2021/06/28 00:02:16;;;;;;;0.00;0.00;;;;;;;23.12;68.10;99204.69;5023650;28;20060;-69
2021/06/28 00:04:42;;;;;;;0.00;0.00;;;;;;;23.21;68.08;99213.94;5041911;28;20531;-71
2021/06/28 00:07:07;;;;;;;0.00;0.00;;;;;;;23.12;68.40;99220.03;5007215;28;20108;-71
2021/06/28 00:09:33;;;;;;;0.00;0.00;;;;;;;23.07;68.41;99206.03;5024375;28;20069;-73
2021/06/28 00:12:02;;;;;;;0.00;0.00;;;;;;;23.12;68.52;99226.31;5024228;28;20416;-69
2021/06/28 00:14:27;;;;;;;0.00;0.00;;;;;;;23.07;68.65;99217.72;5025299;28;20053;-72
2021/06/28 00:16:54;;;;;;;0.00;0.00;;;;;;;23.06;68.80;99207.00;5004582;28;20119;-68
2021/06/28 00:19:19;;;;;;;0.25;0.00;;;;;;;23.03;68.56;99191.91;5010749;28;20045;-69
2021/06/28 00:21:45;;;;;;;0.00;0.00;;;;;;;23.07;68.98;99200.59;5019284;28;20054;-68
2021/06/28 00:24:11;;;;;;;0.00;0.00;;;;;;;23.04;68.68;99181.91;5008617;28;20045;-68
2021/06/28 00:26:38;;;;;;;0.00;0.00;;;;;;;23.01;68.95;99177.63;5022311;28;20038;-68
2021/06/28 00:29:03;;;;;;;0.00;0.00;;;;;;;22.99;69.47;99186.84;5008791;28;20042;-72
2021/06/28 00:31:29;;;;;;;0.13;0.00;;;;;;;22.96;69.37;99182.53;5022129;28;20041;-71
2021/06/28 00:33:56;;;;;;;0.00;0.00;;;;;;;22.96;69.30;99184.38;5023929;28;20142;-72
2021/06/28 00:36:22;;;;;;;0.00;0.00;;;;;;;22.96;69.42;99182.53;5022875;28;20042;-70
2021/06/28 00:38:48;;;;;;;0.00;0.00;;;;;;;22.96;69.39;99190.66;5026521;28;20049;-71
2021/06/28 00:41:14;;;;;;;0.00;0.00;;;;;;;22.88;69.78;99181.41;5016659;28;20072;-70
2021/06/28 00:43:40;;;;;;;0.00;0.00;;;;;;;22.96;69.40;99184.38;5008127;28;20077;-71
2021/06/28 00:46:06;;;;;;;0.00;0.00;;;;;;;23.03;69.31;99186.47;5021745;28;20112;-72
2021/06/28 00:48:31;;;;;;;0.00;0.00;;;;;;;23.02;69.09;99187.44;5042791;28;20123;-72
2021/06/28 00:50:57;;;;;;;0.00;0.00;;;;;;;23.03;69.09;99191.91;5012195;28;20052;-71
2021/06/28 00:53:24;;;;;;;0.00;0.00;;;;;;;23.11;69.02;99197.56;5022896;28;20037;-70
2021/06/28 00:55:52;;;;;;;0.00;0.00;;;;;;;23.10;69.06;99203.91;5005472;28;20049;-71
2021/06/28 00:58:21;;;;;;;0.00;0.00;;;;;;;23.08;69.10;99202.31;5017922;28;20045;-70
2021/06/28 01:00:47;;;;;;;0.00;0.00;;;;;;;23.08;69.19;99195.09;5011016;28;20041;-71
2021/06/28 01:03:13;;;;;;;0.00;0.00;;;;;;;23.13;69.13;99195.56;5034304;28;20505;-71
2021/06/28 01:05:41;;;;;;;0.00;0.00;;;;;;;23.18;68.90;99190.63;5006144;28;20064;-71
2021/06/28 01:08:06;;;;;;;0.00;0.00;;;;;;;23.04;68.95;99162.97;5036478;28;20041;-71
2021/06/28 01:10:34;;;;;;;0.00;0.00;;;;;;;23.13;68.89;99176.63;5010454;28;20472;-71
2021/06/28 01:13:00;;;;;;;0.00;0.00;;;;;;;23.20;68.88;99182.41;5007348;28;20049;-72
2021/06/28 01:15:26;;;;;;;0.00;0.00;;;;;;;23.23;68.75;99187.63;5009861;28;20106;-71
2021/06/28 01:17:52;;;;;;;0.00;0.00;;;;;;;23.31;68.28;99185.16;5029215;28;20508;-71
2021/06/28 01:20:21;;;;;;;0.00;0.00;;;;;;;23.38;68.13;99195.34;5008008;28;20049;-70
2021/06/28 01:22:50;;;;;;;0.00;0.00;;;;;;;23.37;68.19;99203.59;5015515;28;20037;-71
2021/06/28 01:25:22;;;;;;;0.00;0.00;;;;;;;23.44;67.79;99213.81;5009297;28;20130;-70
2021/06/28 01:27:48;;;;;;;;;;;;;;;23.53;67.74;99229.28;5020909;28;20124;-70
2021/06/28 01:30:18;;;;;;;0.00;0.00;;;;;;;23.33;68.14;99221.91;5022729;28;20008;-70
2021/06/28 01:32:45;;;;;;;0.00;0.00;;;;;;;23.09;68.76;99202.22;5005849;28;20069;-70
2021/06/28 01:35:12;;;;;;;0.00;0.00;;;;;;;23.08;69.30;99208.59;5034815;28;20055;-73
2021/06/28 01:37:39;;;;;;;0.00;0.00;;;;;;;23.12;69.39;99211.91;5023231;28;20868;-71
2021/06/28 01:40:08;;;;;;;0.00;0.00;;;;;;;23.08;69.53;99210.44;5012333;28;20049;-70
2021/06/28 01:42:35;;;;;;;0.00;0.00;;;;;;;23.18;69.34;99219.56;5024738;28;20053;-68
2021/06/28 01:45:05;;;;;;;0.00;0.00;;;;;;;23.22;69.17;99216.50;5012200;28;20048;-70
2021/06/28 01:47:31;;;;;;;0.00;0.00;;;;;;;22.83;69.89;99189.03;5022672;28;20567;-70
2021/06/28 01:49:57;;;;;;;0.05;0.00;;;;;;;22.77;71.07;99203.03;5024885;28;20049;-71
2021/06/28 01:52:23;;;;;;;0.00;0.00;;;;;;;22.62;71.82;99188.03;5010226;28;20053;-70
2021/06/28 01:54:49;;;;;;;0.00;0.00;;;;;;;22.76;71.76;99180.56;5006269;28;20037;-67
2021/06/28 01:57:14;;;;;;;0.00;0.00;;;;;;;22.98;70.99;99164.34;5022781;28;20043;-69
2021/06/28 01:59:40;;;;;;;0.00;0.00;;;;;;;23.03;70.24;99151.31;5008742;28;20042;-70
2021/06/28 02:02:07;;;;;;;0.00;0.00;;;;;;;23.12;69.68;99155.97;5022410;28;20065;-66
2021/06/28 02:04:34;;;;;;;0.00;0.00;;;;;;;23.22;69.63;99175.06;5026033;28;20103;-67
2021/06/28 02:07:05;;;;;;;0.00;0.00;;;;;;;23.04;69.55;99155.75;4991810;28;20554;-73
2021/06/28 02:09:33;;;;;;;0.00;0.00;;;;;;;23.11;69.61;99164.22;5008118;28;20162;-74
2021/06/28 02:11:59;;;;;;;0.00;0.00;;;;;;;23.18;69.53;99160.88;5016326;28;20049;-75
2021/06/28 02:14:25;;;;;;;0.00;0.00;;;;;;;23.26;69.41;99149.50;5025662;28;20151;-76
2021/06/28 02:16:51;;;;;;;0.00;0.00;;;;;;;23.27;68.93;99138.56;5021853;28;20044;-71
2021/06/28 02:19:18;;;;;;;0.00;0.00;;;;;;;23.38;68.74;99145.78;5041155;28;20471;-71
2021/06/28 02:21:45;;;;;;;0.00;0.00;;;;;;;23.38;68.43;99133.09;5023404;28;20136;-74
2021/06/28 02:24:12;;;;;;;0.00;0.00;;;;;;;23.46;68.21;99130.63;5021015;28;20033;-74
2021/06/28 02:26:39;;;;;;;0.00;0.00;;;;;;;23.47;67.81;99120.66;5023311;28;20291;-73
2021/06/28 02:29:05;;;;;;;0.00;0.00;;;;;;;23.48;67.85;99109.72;5010381;28;20132;-74
2021/06/28 02:31:31;;;;;;;0.00;0.00;;;;;;;23.43;68.43;99098.44;5009766;28;20132;-73
2021/06/28 02:33:57;;;;;;;0.00;0.00;;;;;;;23.51;68.30;99098.66;5023528;28;20049;-71
2021/06/28 02:36:25;;;;;;;0.00;0.00;;;;;;;23.56;68.08;99101.81;5004005;28;20724;-74
2021/06/28 02:38:52;;;;;;;0.00;0.00;;;;;;;23.58;67.88;99102.53;5010688;28;20124;-74
2021/06/28 02:41:19;;;;;;;0.00;0.00;;;;;;;23.60;67.59;99099.72;5005498;28;20045;-71
2021/06/28 02:44:05;;;;;;;0.00;0.00;;;;;;;23.68;67.36;99106.22;4955033;28;20047;-73
2021/06/28 02:46:31;;;;;;;0.00;0.00;;;;;;;23.75;67.32;99110.13;4962935;28;20070;-74
2021/06/28 02:48:57;;;;;;;0.00;0.00;;;;;;;23.76;67.48;99092.03;4962858;28;20039;-69
2021/06/28 02:51:23;;;;;;;0.20;0.00;;;;;;;23.73;67.30;99095.84;4961609;28;20058;-75
2021/06/28 02:53:49;;;;;;;0.00;0.00;;;;;;;23.72;67.27;99104.09;4946626;28;20039;-73
2021/06/28 02:56:16;;;;;;;0.00;0.00;;;;;;;23.77;67.15;99102.72;4944413;28;20114;-74
2021/06/28 02:58:55;;;;;;;0.00;0.00;;;;;;;23.73;67.05;99079.59;4951516;28;20666;-75
2021/06/28 03:01:23;;;;;;;0.00;0.00;;;;;;;23.79;67.29;99079.09;4964054;28;20058;-77
2021/06/28 03:03:49;;;;;;;0.00;0.00;;;;;;;23.65;67.32;99048.78;4941359;28;20051;-73
2021/06/28 03:06:16;;;;;;;0.00;0.00;;;;;;;23.81;67.23;99070.84;4955964;28;20080;-71
2021/06/28 03:08:44;;;;;;;0.00;0.00;;;;;;;23.88;67.15;99078.31;4939637;28;20055;-71
2021/06/28 03:11:11;;;;;;;0.00;0.00;;;;;;;23.95;66.82;99067.84;4980100;28;20146;-71
2021/06/28 03:13:38;;;;;;;0.00;0.00;;;;;;;23.92;66.85;99047.31;4961732;28;20062;-71
2021/06/28 03:16:05;;;;;;;0.00;0.00;;;;;;;24.12;66.53;99053.69;5026862;28;20128;-71
2021/06/28 03:18:32;;;;;;;0.00;0.00;;;;;;;24.19;66.12;99066.59;5023490;28;20134;-75
2021/06/28 03:20:59;;;;;;;0.00;0.00;;;;;;;24.30;65.58;99074.69;5018175;28;20050;-74
2021/06/28 03:23:25;;;;;;;0.00;0.00;;;;;;;24.48;65.11;99075.75;5004553;28;20046;-76
2021/06/28 03:25:51;;;;;;;0.00;0.00;;;;;;;24.32;65.48;99083.50;5020398;28;20049;-76
2021/06/28 03:28:17;;;;;;;0.00;0.00;;;;;;;24.40;65.09;99083.72;5019042;28;20053;-76
2021/06/28 03:30:43;;;;;;;0.10;0.00;;;;;;;24.43;65.02;99069.91;5006647;28;20046;-75
2021/06/28 03:33:09;;;;;;;0.00;0.00;;;;;;;24.45;64.95;99054.34;5025949;28;20101;-75
2021/06/28 03:35:35;;;;;;;0.00;0.00;;;;;;;24.41;64.81;99036.63;5025185;28;20129;-76
2021/06/28 03:38:01;;;;;;;0.00;0.00;;;;;;;24.45;64.90;99043.50;5005240;28;20129;-76
2021/06/28 03:40:32;;;;;;;0.00;0.00;;;;;;;24.41;65.01;99055.59;5016844;28;20191;-77
2021/06/28 03:43:01;;;;;;;0.00;0.00;;;;;;;24.27;65.47;99023.44;5005188;28;20041;-76
2021/06/28 03:45:27;;;;;;;0.00;0.00;;;;;;;24.32;65.74;99051.00;5005332;28;20472;-75
2021/06/28 03:47:53;;;;;;;0.00;0.00;;;;;;;24.21;66.03;99021.25;5003789;28;20077;-76
2021/06/28 03:50:19;;;;;;;0.00;0.00;;;;;;;24.26;66.27;99037.13;5010622;28;20436;-77
2021/06/28 03:52:49;;;;;;;0.00;0.00;;;;;;;24.32;66.02;99033.84;5023810;28;20090;-74
2021/06/28 03:55:15;;;;;;;0.00;0.00;;;;;;;24.37;65.87;99045.19;5005465;28;20052;-72
2021/06/28 03:57:42;;;;;;;0.00;0.00;;;;;;;24.31;66.16;99024.03;5014708;28;20318;-75
2021/06/28 04:00:13;;;;;;;0.00;0.00;;;;;;;24.45;65.82;99032.66;5013826;28;20065;-75
2021/06/28 04:02:42;;;;;;;0.00;0.00;;;;;;;24.42;65.65;99010.38;5018709;28;20061;-70
2021/06/28 04:05:11;;;;;;;0.00;0.00;;;;;;;24.55;65.87;99030.00;5025571;28;20125;-77
2021/06/28 04:07:37;;;;;;;0.00;0.00;;;;;;;24.68;65.74;99034.22;4997730;28;20457;-76
2021/06/28 04:10:05;;;;;;;0.00;0.00;;;;;;;24.69;65.54;99024.25;5018023;28;20507;-77
2021/06/28 04:12:31;;;;;;;0.10;0.00;;;;;;;24.75;65.50;99013.72;5010770;28;20133;-79
2021/06/28 04:14:57;;;;;;;0.70;0.00;;;;;;;24.82;65.56;98997.75;5009601;28;20045;-78
2021/06/28 04:17:23;;;;;;;0.00;0.00;;;;;;;24.85;64.97;98978.47;5025113;28;20129;-77
2021/06/28 04:19:49;;;;;;;0.00;0.00;;;;;;;24.87;64.95;98969.22;5009745;28;20104;-72
2021/06/28 04:22:15;;;;;;;0.00;0.00;;;;;;;24.98;64.64;98988.09;5019281;28;20735;-74
2021/06/28 04:24:41;;;;;;;0.05;0.00;;;;;;;24.95;64.59;98988.34;5019157;28;20073;-78
2021/06/28 04:27:07;;;;;;;0.10;0.00;;;;;;;25.14;64.45;98988.41;5023558;28;20501;-77
2021/06/28 04:29:33;;;;;;;0.00;0.00;;;;;;;25.14;64.63;98996.53;5020764;28;20042;-76
2021/06/28 04:31:58;;;;;;;0.00;0.00;;;;;;;25.18;64.17;98984.41;5039625;28;20501;-74
2021/06/28 04:34:24;;;;;;;0.00;0.00;;;;;;;25.26;64.19;98986.41;5012899;28;20111;-74
2021/06/28 04:36:52;;;;;;;0.00;0.00;;;;;;;25.33;64.33;98985.75;5024136;28;20460;-70
2021/06/28 04:39:18;;;;;;;0.00;0.00;;;;;;;25.34;63.92;98971.16;5022623;28;20066;-74
2021/06/28 04:41:44;;;;;;;0.00;0.00;;;;;;;25.50;63.78;98982.31;5010680;28;20096;-74
2021/06/28 04:44:10;;;;;;;0.00;0.00;;;;;;;25.42;63.65;98971.31;5021204;28;20046;-74
2021/06/28 04:46:38;;;;;;;0.00;0.00;;;;;;;25.37;63.32;98946.47;5013125;28;20123;-75
2021/06/28 04:49:04;;;;;;;0.00;0.00;;;;;;;25.67;62.90;98976.16;5015728;28;20131;-74
2021/06/28 04:51:32;;;;;;;0.10;0.00;;;;;;;25.70;62.90;98994.03;5015772;28;20061;-75
2021/06/28 04:53:59;;;;;;;0.00;0.00;;;;;;;25.84;62.76;98991.72;5011461;28;20505;-72
2021/06/28 04:56:24;;;;;;;0.00;0.00;;;;;;;25.83;62.42;98970.16;5026148;28;20094;-76
2021/06/28 04:58:51;;;;;;;0.00;0.00;;;;;;;26.03;62.25;98979.16;5010419;28;20053;-75
2021/06/28 05:01:17;;;;;;;0.00;0.00;;;;;;;26.04;61.55;98983.56;5025422;28;20460;-76
2021/06/28 05:03:44;;;;;;;0.00;0.00;;;;;;;26.01;61.43;98965.69;5022864;28;20114;-73
2021/06/28 05:06:10;;;;;;;0.10;0.00;;;;;;;26.04;61.19;98964.56;5014514;28;20368;-74
2021/06/28 05:08:36;;;;;;;0.00;0.00;;;;;;;26.29;60.79;98974.81;5021600;28;20445;-76
2021/06/28 05:11:02;;;;;;;0.00;0.00;;;;;;;26.32;60.49;98972.63;5006042;28;20045;-75
2021/06/28 05:13:28;;;;;;;0.00;0.00;;;;;;;26.43;60.37;98977.88;5036875;28;20041;-77
2021/06/28 05:15:53;;;;;;;0.00;0.00;;;;;;;26.59;60.36;98977.28;5012534;28;20091;-75
2021/06/28 05:18:21;;;;;;;0.10;0.05;;;;;;;26.63;59.95;98989.56;5022117;28;20156;-74
2021/06/28 05:20:47;;;;;;;0.00;0.00;;;;;;;26.65;59.92;98969.38;5004832;28;20062;-72
2021/06/28 05:23:13;;;;;;;0.00;0.00;;;;;;;26.41;60.36;98969.00;5022297;28;20916;-67
2021/06/28 05:25:39;;;;;;;0.00;0.00;;;;;;;26.56;60.06;98975.69;5008054;28;20045;-69
2021/06/28 05:28:05;;;;;;;0.00;0.00;;;;;;;26.63;60.14;98979.56;5005326;28;20591;-71
2021/06/28 05:30:31;;;;;;;0.00;0.00;;;;;;;26.83;59.81;98983.91;5033225;28;20103;-70
2021/06/28 05:32:57;;;;;;;0.00;0.00;;;;;;;26.70;59.44;98991.53;5005923;28;20107;-71
2021/06/28 05:35:22;;;;;;;0.10;0.00;;;;;;;26.79;59.69;99008.81;5009347;28;20053;-72
2021/06/28 05:37:49;;;;;;;0.00;0.00;;;;;;;26.83;59.61;99005.66;5019598;28;20465;-70
2021/06/28 05:40:15;;;;;;;0.00;0.00;;;;;;;26.72;60.08;99005.84;5013086;28;20068;-71
2021/06/28 05:42:46;;;;;;;0.00;0.00;;;;;;;26.88;59.57;98989.72;5005336;28;20405;-71
2021/06/28 05:45:13;;;;;;;0.00;0.00;;;;;;;27.27;58.86;99017.59;4992752;28;20057;-70
2021/06/28 05:47:39;;;;;;;0.00;0.00;;;;;;;27.49;58.25;99009.00;5022342;28;20604;-70
2021/06/28 05:50:08;;;;;;;0.00;0.00;;;;;;;27.58;57.95;99010.78;5024409;28;20123;-70
2021/06/28 05:52:34;;;;;;;0.00;0.00;;;;;;;27.54;57.98;99004.81;5025588;28;20053;-71
2021/06/28 05:55:00;;;;;;;0.00;0.00;;;;;;;27.65;57.76;99011.88;5022733;28;20106;-70
2021/06/28 05:57:26;;;;;;;0.00;0.00;;;;;;;27.59;57.92;99031.56;5038342;28;20124;-72
2021/06/28 05:59:54;;;;;;;0.00;0.00;;;;;;;27.43;58.33;99037.72;5038716;28;20041;-72
2021/06/28 06:02:21;;;;;;;0.20;0.08;;;;;;;27.39;58.64;99035.44;5022418;28;20118;-72
2021/06/28 06:04:47;;;;;;;0.00;0.00;;;;;;;27.38;58.80;99037.31;5022619;28;20083;-72
2021/06/28 06:07:13;;;;;;;0.00;0.00;;;;;;;27.39;59.46;99039.03;5021316;28;20100;-72
2021/06/28 06:09:39;;;;;;;0.00;0.00;;;;;;;27.31;59.40;99038.94;5022783;28;20052;-72
2021/06/28 06:12:06;;;;;;;0.00;0.00;;;;;;;27.40;59.20;99045.31;5022320;28;20045;-71
2021/06/28 06:14:32;;;;;;;0.05;0.00;;;;;;;27.30;59.30;99042.69;5022504;28;20087;-72
2021/06/28 06:16:58;;;;;;;0.00;0.00;;;;;;;27.44;59.04;99053.03;5022849;28;20171;-70
2021/06/28 06:19:24;;;;;;;0.00;0.00;;;;;;;27.46;59.71;99047.44;5021205;28;20559;-71
2021/06/28 06:21:50;;;;;;;0.00;0.00;;;;;;;27.89;58.86;99045.69;5019969;28;20041;-70
2021/06/28 06:24:16;;;;;;;0.03;0.00;;;;;;;27.92;58.03;99045.38;5006995;28;20049;-71
2021/06/28 06:26:42;;;;;;;0.00;0.00;;;;;;;27.97;57.89;99058.53;5020320;28;20037;-73
2021/06/28 06:29:08;;;;;;;0.00;0.00;;;;;;;28.10;57.52;99050.81;5038715;28;20412;-71
2021/06/28 06:31:34;;;;;;;0.00;0.00;;;;;;;28.06;57.79;99044.81;5004230;28;20463;-72
2021/06/28 06:34:02;;;;;;;0.00;0.00;;;;;;;28.08;58.38;99034.59;5022917;28;20493;-73
2021/06/28 06:36:28;;;;;;;0.00;0.00;;;;;;;27.95;57.99;99030.56;5023730;28;20080;-73
2021/06/28 06:38:54;;;;;;;0.00;0.00;;;;;;;27.99;58.30;99043.72;5017111;28;20067;-73
2021/06/28 06:41:20;;;;;;;0.00;0.00;;;;;;;28.12;58.03;99033.28;5018632;28;20052;-73
2021/06/28 06:43:46;;;;;;;0.00;0.00;;;;;;;28.03;58.22;99036.94;5021554;28;20041;-75
2021/06/28 06:46:12;;;;;;;0.00;0.00;;;;;;;28.00;58.12;99034.53;5023035;28;20052;-73
2021/06/28 06:48:38;;;;;;;0.00;0.00;;;;;;;28.18;57.65;99046.28;5020318;28;20049;-72
2021/06/28 06:51:04;;;;;;;0.00;0.00;;;;;;;28.35;57.41;99050.84;5006295;28;20045;-71
2021/06/28 06:53:30;;;;;;;0.00;0.00;;;;;;;28.27;57.82;99060.81;5022462;28;20052;-66
2021/06/28 06:55:56;;;;;;;0.00;0.00;;;;;;;28.27;57.61;99049.91;5022224;28;20041;-69
2021/06/28 06:58:21;;;;;;;0.00;0.00;;;;;;;28.49;57.23;99052.16;5013762;28;20051;-69
2021/06/28 07:00:47;;;;;;;0.00;0.00;;;;;;;28.52;56.66;99049.13;5022710;28;20425;-71
2021/06/28 07:03:13;;;;;;;0.00;0.00;;;;;;;28.71;56.53;99060.66;5023002;28;20147;-70
2021/06/28 07:05:39;;;;;;;0.00;0.00;;;;;;;28.90;56.29;99057.69;5016132;28;20500;-69
2021/06/28 07:08:07;;;;;;;0.00;0.00;;;;;;;28.98;55.99;99063.19;5023594;28;20445;-72
2021/06/28 07:10:33;;;;;;;0.00;0.00;;;;;;;28.92;55.78;99066.56;5022396;28;20781;-70
2021/06/28 07:13:00;;;;;;;0.05;0.00;;;;;;;29.01;55.52;99062.03;5021456;28;20061;-70
2021/06/28 07:15:26;;;;;;;0.00;0.00;;;;;;;29.27;55.17;99060.97;5020927;28;20417;-70
2021/06/28 07:17:52;;;;;;;0.00;0.00;;;;;;;29.70;54.34;99057.19;5021635;28;20108;-70
2021/06/28 07:20:22;;;;;;;0.00;0.00;;;;;;;29.37;54.17;99052.63;5022143;28;20052;-71
2021/06/28 07:22:49;;;;;;;0.00;0.00;;;;;;;30.02;53.59;99064.56;5014723;28;20519;-71
2021/06/28 07:25:16;;;;;;;0.00;0.00;;;;;;;30.11;52.74;99069.03;5038081;28;20034;-71
2021/06/28 07:27:43;;;;;;;0.00;0.00;;;;;;;30.86;51.35;99072.25;5010227;28;20150;-71
2021/06/28 07:30:12;;;;;;;0.00;0.00;;;;;;;31.35;49.78;99075.69;5021416;28;20045;-71
2021/06/28 07:32:39;;;;;;;0.00;0.00;;;;;;;31.72;48.68;99075.84;5002931;28;20041;-72
2021/06/28 07:35:07;;;;;;;0.00;0.00;;;;;;;31.45;49.31;99081.81;5025876;28;20040;-72
2021/06/28 07:37:33;;;;;;;0.00;0.00;;;;;;;31.23;49.62;99069.75;5027602;28;20041;-70
2021/06/28 07:39:59;;;;;;;0.00;0.00;;;;;;;30.63;51.12;99084.06;5021708;28;20053;-71
2021/06/28 07:42:25;;;;;;;0.00;0.00;;;;;;;31.42;49.78;99082.19;4988885;28;20512;-71
2021/06/28 07:44:52;;;;;;;0.10;0.00;;;;;;;31.34;49.39;99083.09;5027900;28;20161;-70
2021/06/28 07:47:18;;;;;;;0.00;0.00;;;;;;;32.18;47.72;99085.81;5024601;28;20048;-72
2021/06/28 07:49:44;;;;;;;0.00;0.00;;;;;;;32.68;46.33;99088.88;5027182;28;20037;-73
2021/06/28 07:52:10;;;;;;;0.00;0.00;;;;;;;32.81;45.91;99081.72;5039856;28;20555;-74
2021/06/28 07:54:39;;;;;;;0.00;0.00;;;;;;;32.13;47.25;99094.63;5023318;28;20115;-68
2021/06/28 07:57:05;;;;;;;0.00;0.00;;;;;;;32.04;47.38;99082.00;4999670;28;20084;-66
2021/06/28 07:59:31;;;;;;;0.00;0.00;;;;;;;31.76;48.00;99085.44;5024638;28;20092;-70
2021/06/28 08:01:57;;;;;;;0.00;0.00;;;;;;;32.04;47.83;99079.25;5024091;28;20822;-72
2021/06/28 08:04:27;;;;;;;0.00;0.00;;;;;;;32.86;45.86;99083.88;5023649;28;20046;-73
2021/06/28 08:06:55;;;;;;;0.00;0.00;;;;;;;33.54;43.98;99078.13;5024733;28;20037;-69
2021/06/28 08:09:21;;;;;;;0.13;0.00;;;;;;;34.44;41.57;99069.22;5025153;28;20049;-70
2021/06/28 08:11:47;;;;;;;0.08;0.00;;;;;;;35.47;39.66;99076.56;4997219;28;20053;-73
2021/06/28 08:14:15;;;;;;;0.00;0.00;;;;;;;35.00;41.46;99071.78;5020527;28;20033;-69
2021/06/28 08:16:41;;;;;;;0.00;0.00;;;;;;;34.80;41.16;99070.78;5023752;28;20073;-73
2021/06/28 08:19:07;;;;;;;0.00;0.00;;;;;;;35.41;39.49;99069.94;5026456;28;20065;-75
2021/06/28 08:21:34;;;;;;;0.00;0.00;;;;;;;34.97;39.48;99077.72;5023361;28;20540;-73
2021/06/28 08:24:00;;;;;;;0.00;0.00;;;;;;;35.23;39.32;99061.31;5024671;28;20064;-70
2021/06/28 08:26:26;;;;;;;0.00;0.00;;;;;;;37.22;35.81;99059.41;5026357;28;20057;-74
2021/06/28 08:28:53;;;;;;;0.00;0.00;;;;;;;36.33;37.45;99057.28;5004165;28;20052;-84
2021/06/28 08:31:19;;;;;;;0.00;0.00;;;;;;;36.76;36.44;99039.25;5023531;28;20055;-70
2021/06/28 08:33:45;;;;;;;0.00;0.00;;;;;;;37.90;33.72;99024.63;5024687;28;20171;-69
2021/06/28 08:36:11;;;;;;;0.00;0.00;;;;;;;36.87;35.41;99035.84;5024935;28;20136;-72
2021/06/28 08:38:38;;;;;;;0.00;0.00;;;;;;;37.13;35.04;99021.94;5021263;28;20060;-67
2021/06/28 08:41:04;;;;;;;0.00;0.00;;;;;;;38.92;31.83;99018.50;5015729;28;20053;-67
2021/06/28 08:43:30;;;;;;;0.00;0.00;;;;;;;37.86;33.21;99002.09;5022589;28;20053;-66
2021/06/28 08:45:56;;;;;;;0.00;0.00;;;;;;;37.16;34.07;98999.41;5022954;28;20090;-68
2021/06/28 08:48:23;;;;;;;0.10;0.10;;;;;;;38.04;32.82;98991.09;5020039;28;20140;-67
2021/06/28 08:50:53;;;;;;;0.00;0.00;;;;;;;37.10;33.94;98986.44;5036630;28;20056;-68
2021/06/28 08:53:21;;;;;;;0.00;0.00;;;;;;;37.56;33.04;98958.59;5018785;28;20103;-68
2021/06/28 08:55:47;;;;;;;0.00;0.00;;;;;;;36.05;35.71;98933.22;5020664;28;20045;-69
2021/06/28 08:58:13;;;;;;;0.00;0.00;;;;;;;34.61;38.91;98925.50;5024893;28;20184;-66
2021/06/28 09:00:39;;;;;;;0.00;0.00;;;;;;;32.86;41.75;98946.53;5021907;28;20152;-67
2021/06/28 09:03:08;;;;;;;0.00;0.00;;;;;;;32.50;44.63;98946.44;5023057;28;20056;-72
2021/06/28 09:05:51;;;;;;;0.00;0.00;;;;;;;32.06;46.54;98939.16;5024149;28;20330;-70
2021/06/28 09:08:19;;;;;;;0.00;0.00;;;;;;;30.95;50.95;98930.66;5025494;28;20045;-70
2021/06/28 09:10:45;;;;;;;0.00;0.00;;;;;;;30.18;57.38;98938.78;5022140;28;20049;-70
2021/06/28 09:13:13;;;;;;;0.00;0.00;;;;;;;29.30;63.45;99007.88;5039101;28;20136;-70
2021/06/28 09:15:42;;;;;;;0.13;0.03;;;;;;;-141.86;100.00;57692.91;5023702;28;21222;-68
2021/06/28 09:18:23;;;;;;;0.00;0.00;;;;;;;-141.86;100.00;57692.91;5033657;28;20417;-69
2021/06/28 09:21:03;;;;;;;0.00;0.00;;;;;;;-141.86;100.00;57692.91;5022209;28;20139;-67
2021/06/28 09:23:29;;;;;;;0.00;0.00;;;;;;;-141.86;100.00;57692.91;5024511;28;20118;-72
2021/06/28 09:25:57;;;;;;;0.00;0.00;;;;;;;-141.86;100.00;57692.91;4973898;28;20049;-66
2021/06/28 09:28:40;;;;;;;0.00;0.00;;;;;;;-141.86;100.00;57692.91;5008332;28;20497;-66
2021/06/28 09:31:06;;;;;;;;;;;;;;;-141.86;100.00;57692.91;5037136;28;20094;-66
2021/06/28 09:33:32;;;;;;;0.00;0.00;;;;;;;-141.86;100.00;57692.91;5032690;28;20344;-66
2021/06/28 09:35:58;;;;;;;0.30;0.15;;;;;;;-141.86;100.00;57692.91;5006808;28;20481;-68
2021/06/28 09:38:44;;;;;;;0.20;0.10;;;;;;;-141.86;100.00;57692.91;5006453;28;20048;-71
2021/06/28 09:41:24;;;;;;;0.10;0.10;;;;;;;-141.86;100.00;57692.91;5020870;28;20092;-66
2021/06/28 09:44:09;;;;;;;0.00;0.00;;;;;;;-141.86;100.00;57692.91;5004838;28;20479;-75
2021/06/28 09:46:37;;;;;;;0.17;0.10;;;;;;;-141.86;100.00;57692.91;5009044;28;20049;-72
2021/06/28 09:49:06;;;;;;;0.00;0.00;;;;;;;-141.86;100.00;57692.91;5005831;28;20512;-74
2021/06/28 09:52:01;;;;;;;0.00;0.00;;;;;;;-141.86;100.00;57692.91;5036449;28;20981;-70
2021/06/28 09:54:31;;;;;;;0.00;0.00;;;;;;;-141.86;100.00;57692.91;4989100;28;20342;-79
2021/06/28 09:56:57;;;;;;;0.00;0.00;;;;;;;-141.86;100.00;57692.91;5022217;28;20045;-69
2021/06/28 09:59:35;;;;;;;0.00;0.00;;;;;;;-141.86;100.00;57692.91;5004731;28;20064;-70
2021/06/28 10:02:25;;;;;;;0.00;0.00;;;;;;;-141.86;100.00;57692.91;5003287;28;20046;-75
2021/06/28 10:04:59;;;;;;;0.00;0.00;;;;;;;-141.86;100.00;57692.91;5022543;28;20574;-72
2021/06/28 10:07:29;;;;;;;0.00;0.00;;;;;;;-141.86;100.00;57692.91;5032442;28;20049;-71
2021/06/28 10:10:31;;;;;;;0.00;0.00;;;;;;;-141.86;100.00;57692.91;5023209;28;20500;-71
2021/06/28 10:12:57;;;;;;;0.00;0.00;;;;;;;-141.86;100.00;57692.91;5021824;28;20289;-70
2021/06/28 10:15:29;;;;;;;0.00;0.00;;;;;;;-141.86;100.00;57692.91;4989941;28;20034;-69
2021/06/28 10:17:55;;;;;;;0.00;0.00;;;;;;;-141.86;100.00;57692.91;5022840;28;20041;-73
2021/06/28 10:20:24;;;;;;;0.00;0.00;;;;;;;-141.86;100.00;57692.91;5028595;28;20084;-71
2021/06/28 10:22:53;;;;;;;0.00;0.00;;;;;;;-141.86;100.00;57692.91;5006992;28;20088;-75
2021/06/28 10:25:20;;;;;;;0.00;0.00;;;;;;;-141.86;100.00;57692.91;5038477;28;20405;-68
2021/06/28 10:27:47;;;;;;;0.00;0.00;;;;;;;-141.86;100.00;57692.91;5016103;28;20045;-69
2021/06/28 10:30:16;;;;;;;0.00;0.00;;;;;;;-141.86;100.00;57692.91;5022224;28;20519;-67
2021/06/28 10:32:44;;;;;;;0.00;0.00;;;;;;;-141.86;100.00;57692.91;5006712;28;20493;-73
2021/06/28 10:35:15;;;;;;;0.00;0.00;;;;;;;-141.86;100.00;57692.91;4997862;28;20582;-71
2021/06/28 10:37:46;;;;;;;0.00;0.00;;;;;;;-141.86;100.00;57692.91;4974082;28;20041;-66
2021/06/28 10:40:21;;;;;;;0.00;0.00;;;;;;;-141.86;100.00;57692.91;5020541;28;20053;-68
2021/06/28 10:42:53;;;;;;;0.00;0.00;;;;;;;-141.86;100.00;57692.91;5019184;28;20041;-67
2021/06/28 10:45:42;;;;;;;0.00;0.00;;;;;;;-141.86;100.00;57692.91;5022090;28;20044;-68
2021/06/28 10:48:14;;;;;;;0.00;0.00;;;;;;;-141.86;100.00;57692.91;5020999;28;20044;-71
2021/06/28 10:51:03;;;;;;;0.00;0.00;;;;;;;-141.86;100.00;57692.91;5037195;28;20053;-70
2021/06/28 10:53:55;;;;;;;0.00;0.00;;;;;;;-141.86;100.00;57692.91;5008577;28;20112;-71
2021/06/28 10:56:42;;;;;;;0.00;0.00;;;;;;;-141.86;100.00;57692.91;4999000;28;20051;-69
2021/06/28 10:59:41;;;;;;;0.00;0.00;;;;;;;-141.86;100.00;57692.91;5005111;28;20076;-71
2021/06/28 11:02:37;;;;;;;0.00;0.00;;;;;;;-141.86;100.00;57692.91;5022633;28;20060;-69
2021/06/28 11:05:21;;;;;;;0.00;0.00;;;;;;;-141.86;100.00;57692.91;5023490;28;20056;-73
2021/06/28 11:08:20;;;;;;;0.00;0.00;;;;;;;-141.86;100.00;57692.91;5025829;28;20099;-79
2021/06/28 11:11:05;;;;;;;0.00;0.00;;;;;;;-141.86;100.00;57692.91;5024905;28;20483;-72
2021/06/28 11:13:53;;;;;;;0.00;0.00;;;;;;;-141.86;100.00;57692.91;5023515;28;20103;-74
2021/06/28 11:16:40;;;;;;;0.00;0.00;;;;;;;-141.86;100.00;57692.91;5023649;28;20060;-71
2021/06/28 11:22:49;;;;;;;0.00;0.00;;;;;;;-141.86;100.00;57692.91;5021640;28;20119;-68
2021/06/28 11:25:34;;;;;;;0.00;0.00;;;;;;;-141.86;100.00;57692.91;5025292;28;20103;-65
2021/06/28 11:27:59;;;;;;;0.00;0.00;;;;;;;-141.86;100.00;57692.91;5025845;28;20056;-67
2021/06/28 11:30:29;;;;;;;0.00;0.00;;;;;;;-141.86;100.00;57692.91;5024718;28;20132;-68
2021/06/28 11:33:06;;;;;;;0.00;0.00;;;;;;;-141.86;100.00;57692.91;4989733;28;20420;-68
2021/06/28 11:35:41;;;;;;;0.00;0.00;;;;;;;-141.86;100.00;57692.91;4994215;28;20054;-69
2021/06/28 11:38:20;;;;;;;0.00;0.00;;;;;;;-141.86;100.00;57692.91;5060445;22;20184;-72
2021/06/28 11:40:56;;;;;;;0.00;0.00;;;;;;;-141.86;100.00;57692.91;5019336;28;20496;-69